sensor_id;sensor_type;location;lat;lon;timestamp;temperature;humidity
80234;DHT22;69712;42.142;24.766;2023-05-18T00:00:35;16.00;75.50
80234;DHT22;69712;42.142;24.766;2023-05-18T00:03:00;16.10;75.50
80234;DHT22;69712;42.142;24.766;2023-05-18T00:05:27;16.10;75.30
80234;DHT22;69712;42.142;24.766;2023-05-18T00:07:59;16.20;75.00
80234;DHT22;69712;42.142;24.766;2023-05-18T00:10:25;16.10;75.10
80234;DHT22;69712;42.142;24.766;2023-05-18T00:12:50;16.20;74.90
80234;DHT22;69712;42.142;24.766;2023-05-18T00:15:16;16.20;74.60
80234;DHT22;69712;42.142;24.766;2023-05-18T00:17:42;16.20;74.90
80234;DHT22;69712;42.142;24.766;2023-05-18T00:20:08;16.10;75.40
80234;DHT22;69712;42.142;24.766;2023-05-18T00:22:34;16.20;74.90
80234;DHT22;69712;42.142;24.766;2023-05-18T00:25:00;16.20;74.80
80234;DHT22;69712;42.142;24.766;2023-05-18T00:27:26;16.10;75.00
80234;DHT22;69712;42.142;24.766;2023-05-18T00:29:51;16.10;75.50
80234;DHT22;69712;42.142;24.766;2023-05-18T00:32:17;16.10;75.20
80234;DHT22;69712;42.142;24.766;2023-05-18T00:34:43;16.00;75.20
80234;DHT22;69712;42.142;24.766;2023-05-18T00:37:08;16.10;75.10
80234;DHT22;69712;42.142;24.766;2023-05-18T00:39:34;16.00;75.00
80234;DHT22;69712;42.142;24.766;2023-05-18T00:42:00;16.00;74.90
80234;DHT22;69712;42.142;24.766;2023-05-18T00:44:25;15.90;74.90
80234;DHT22;69712;42.142;24.766;2023-05-18T00:46:51;15.80;75.10
80234;DHT22;69712;42.142;24.766;2023-05-18T00:49:17;15.70;75.10
80234;DHT22;69712;42.142;24.766;2023-05-18T00:51:44;15.60;75.40
80234;DHT22;69712;42.142;24.766;2023-05-18T00:54:10;15.60;75.50
80234;DHT22;69712;42.142;24.766;2023-05-18T00:56:36;15.80;74.80
80234;DHT22;69712;42.142;24.766;2023-05-18T00:59:06;15.70;74.80
80234;DHT22;69712;42.142;24.766;2023-05-18T01:01:34;15.80;75.70
80234;DHT22;69712;42.142;24.766;2023-05-18T01:04:02;15.80;74.80
80234;DHT22;69712;42.142;24.766;2023-05-18T01:06:31;15.80;74.80
80234;DHT22;69712;42.142;24.766;2023-05-18T01:09:01;15.80;74.60
80234;DHT22;69712;42.142;24.766;2023-05-18T01:25:40;15.70;74.80
80234;DHT22;69712;42.142;24.766;2023-05-18T01:28:11;15.50;74.90
80234;DHT22;69712;42.142;24.766;2023-05-18T01:30:40;15.60;74.80
80234;DHT22;69712;42.142;24.766;2023-05-18T01:33:10;15.70;74.70
80234;DHT22;69712;42.142;24.766;2023-05-18T01:35:36;15.60;75.10
80234;DHT22;69712;42.142;24.766;2023-05-18T01:38:03;15.50;75.40
80234;DHT22;69712;42.142;24.766;2023-05-18T01:40:38;15.50;75.80
80234;DHT22;69712;42.142;24.766;2023-05-18T01:43:15;15.50;75.70
80234;DHT22;69712;42.142;24.766;2023-05-18T01:45:44;15.70;75.50
80234;DHT22;69712;42.142;24.766;2023-05-18T01:48:15;15.80;75.10
80234;DHT22;69712;42.142;24.766;2023-05-18T01:50:46;15.90;74.70
80234;DHT22;69712;42.142;24.766;2023-05-18T01:53:22;15.80;74.90
80234;DHT22;69712;42.142;24.766;2023-05-18T01:55:49;15.90;74.40
80234;DHT22;69712;42.142;24.766;2023-05-18T01:58:17;15.90;74.60
80234;DHT22;69712;42.142;24.766;2023-05-18T02:00:45;15.80;74.80
80234;DHT22;69712;42.142;24.766;2023-05-18T02:03:13;15.70;74.70
80234;DHT22;69712;42.142;24.766;2023-05-18T02:05:39;15.80;74.30
80234;DHT22;69712;42.142;24.766;2023-05-18T02:08:05;15.90;74.10
80234;DHT22;69712;42.142;24.766;2023-05-18T02:10:31;15.80;74.30
80234;DHT22;69712;42.142;24.766;2023-05-18T02:12:57;15.80;74.40
80234;DHT22;69712;42.142;24.766;2023-05-18T02:15:22;15.80;74.40
80234;DHT22;69712;42.142;24.766;2023-05-18T02:17:48;15.60;74.90
80234;DHT22;69712;42.142;24.766;2023-05-18T02:20:14;15.70;75.00
80234;DHT22;69712;42.142;24.766;2023-05-18T02:22:43;15.70;75.10
80234;DHT22;69712;42.142;24.766;2023-05-18T02:25:27;15.70;75.30
80234;DHT22;69712;42.142;24.766;2023-05-18T02:27:52;15.60;75.20
80234;DHT22;69712;42.142;24.766;2023-05-18T02:30:18;15.60;75.30
80234;DHT22;69712;42.142;24.766;2023-05-18T02:32:44;15.60;75.50
80234;DHT22;69712;42.142;24.766;2023-05-18T02:35:11;15.50;75.70
80234;DHT22;69712;42.142;24.766;2023-05-18T02:37:37;15.50;76.20
80234;DHT22;69712;42.142;24.766;2023-05-18T02:40:14;15.60;76.20
80234;DHT22;69712;42.142;24.766;2023-05-18T02:42:40;15.50;76.50
80234;DHT22;69712;42.142;24.766;2023-05-18T02:45:07;15.60;75.80
80234;DHT22;69712;42.142;24.766;2023-05-18T02:47:33;15.50;76.50
80234;DHT22;69712;42.142;24.766;2023-05-18T02:49:59;15.40;76.70
80234;DHT22;69712;42.142;24.766;2023-05-18T02:52:24;15.50;76.70
80234;DHT22;69712;42.142;24.766;2023-05-18T02:54:51;15.60;76.50
80234;DHT22;69712;42.142;24.766;2023-05-18T02:57:19;15.60;76.80
80234;DHT22;69712;42.142;24.766;2023-05-18T02:59:45;15.70;76.40
80234;DHT22;69712;42.142;24.766;2023-05-18T03:02:11;15.60;76.30
80234;DHT22;69712;42.142;24.766;2023-05-18T03:04:40;15.70;75.80
80234;DHT22;69712;42.142;24.766;2023-05-18T03:07:06;15.30;76.40
80234;DHT22;69712;42.142;24.766;2023-05-18T03:09:32;15.00;77.10
80234;DHT22;69712;42.142;24.766;2023-05-18T03:11:58;15.10;77.80
80234;DHT22;69712;42.142;24.766;2023-05-18T03:14:24;15.30;77.10
80234;DHT22;69712;42.142;24.766;2023-05-18T03:16:49;15.40;76.70
80234;DHT22;69712;42.142;24.766;2023-05-18T03:19:19;15.50;76.30
80234;DHT22;69712;42.142;24.766;2023-05-18T03:21:45;15.50;75.70
80234;DHT22;69712;42.142;24.766;2023-05-18T03:24:10;15.50;75.70
80234;DHT22;69712;42.142;24.766;2023-05-18T03:26:39;15.40;76.00
80234;DHT22;69712;42.142;24.766;2023-05-18T03:29:09;15.50;75.90
80234;DHT22;69712;42.142;24.766;2023-05-18T03:31:35;15.50;76.10
80234;DHT22;69712;42.142;24.766;2023-05-18T03:34:01;15.40;76.10
80234;DHT22;69712;42.142;24.766;2023-05-18T03:36:27;15.40;77.30
80234;DHT22;69712;42.142;24.766;2023-05-18T03:38:52;15.50;76.00
80234;DHT22;69712;42.142;24.766;2023-05-18T03:41:18;15.40;76.20
80234;DHT22;69712;42.142;24.766;2023-05-18T03:43:44;15.30;76.40
80234;DHT22;69712;42.142;24.766;2023-05-18T03:46:10;15.30;76.50
80234;DHT22;69712;42.142;24.766;2023-05-18T03:48:35;15.50;76.30
80234;DHT22;69712;42.142;24.766;2023-05-18T03:51:01;15.50;75.90
80234;DHT22;69712;42.142;24.766;2023-05-18T03:53:27;15.60;76.50
80234;DHT22;69712;42.142;24.766;2023-05-18T03:55:53;15.40;78.50
80234;DHT22;69712;42.142;24.766;2023-05-18T03:58:19;15.40;78.20
80234;DHT22;69712;42.142;24.766;2023-05-18T04:00:45;15.30;77.30
80234;DHT22;69712;42.142;24.766;2023-05-18T04:03:11;15.40;76.70
80234;DHT22;69712;42.142;24.766;2023-05-18T04:05:40;15.40;76.80
80234;DHT22;69712;42.142;24.766;2023-05-18T04:08:08;15.50;76.10
80234;DHT22;69712;42.142;24.766;2023-05-18T04:10:33;15.50;76.40
80234;DHT22;69712;42.142;24.766;2023-05-18T04:12:59;15.50;77.70
80234;DHT22;69712;42.142;24.766;2023-05-18T04:15:25;15.40;78.20
80234;DHT22;69712;42.142;24.766;2023-05-18T04:17:51;15.60;77.10
80234;DHT22;69712;42.142;24.766;2023-05-18T04:20:18;15.60;76.90
80234;DHT22;69712;42.142;24.766;2023-05-18T04:22:46;15.60;77.60
80234;DHT22;69712;42.142;24.766;2023-05-18T04:25:13;15.60;76.90
80234;DHT22;69712;42.142;24.766;2023-05-18T04:27:40;15.80;76.20
80234;DHT22;69712;42.142;24.766;2023-05-18T04:30:12;15.70;76.80
80234;DHT22;69712;42.142;24.766;2023-05-18T04:32:38;15.90;75.50
80234;DHT22;69712;42.142;24.766;2023-05-18T04:35:07;16.00;75.30
80234;DHT22;69712;42.142;24.766;2023-05-18T04:37:34;15.90;75.50
80234;DHT22;69712;42.142;24.766;2023-05-18T04:40:00;16.00;75.10
80234;DHT22;69712;42.142;24.766;2023-05-18T04:42:31;16.10;75.20
80234;DHT22;69712;42.142;24.766;2023-05-18T04:45:00;16.10;75.00
80234;DHT22;69712;42.142;24.766;2023-05-18T04:47:25;16.10;74.60
80234;DHT22;69712;42.142;24.766;2023-05-18T04:49:51;16.20;74.40
80234;DHT22;69712;42.142;24.766;2023-05-18T04:52:17;16.40;73.90
80234;DHT22;69712;42.142;24.766;2023-05-18T04:54:44;16.40;73.90
80234;DHT22;69712;42.142;24.766;2023-05-18T04:57:10;16.40;73.90
80234;DHT22;69712;42.142;24.766;2023-05-18T04:59:36;16.40;73.90
80234;DHT22;69712;42.142;24.766;2023-05-18T05:02:02;16.40;74.00
80234;DHT22;69712;42.142;24.766;2023-05-18T05:04:28;16.40;74.10
80234;DHT22;69712;42.142;24.766;2023-05-18T05:06:54;16.40;74.20
80234;DHT22;69712;42.142;24.766;2023-05-18T05:09:20;16.50;74.00
80234;DHT22;69712;42.142;24.766;2023-05-18T05:11:45;16.50;73.90
80234;DHT22;69712;42.142;24.766;2023-05-18T05:14:11;16.50;73.70
80234;DHT22;69712;42.142;24.766;2023-05-18T05:16:38;16.50;73.70
80234;DHT22;69712;42.142;24.766;2023-05-18T05:19:03;16.50;73.50
80234;DHT22;69712;42.142;24.766;2023-05-18T05:21:30;16.60;73.70
80234;DHT22;69712;42.142;24.766;2023-05-18T05:23:56;16.70;73.60
80234;DHT22;69712;42.142;24.766;2023-05-18T05:26:22;16.70;73.50
80234;DHT22;69712;42.142;24.766;2023-05-18T05:28:47;16.50;74.20
80234;DHT22;69712;42.142;24.766;2023-05-18T05:31:13;16.40;73.70
80234;DHT22;69712;42.142;24.766;2023-05-18T05:33:40;16.40;74.20
80234;DHT22;69712;42.142;24.766;2023-05-18T05:36:05;16.40;74.30
80234;DHT22;69712;42.142;24.766;2023-05-18T05:38:32;16.50;74.10
80234;DHT22;69712;42.142;24.766;2023-05-18T05:40:58;16.50;73.70
80234;DHT22;69712;42.142;24.766;2023-05-18T05:43:25;16.50;73.40
80234;DHT22;69712;42.142;24.766;2023-05-18T05:45:50;16.50;74.10
80234;DHT22;69712;42.142;24.766;2023-05-18T05:48:16;16.50;74.20
80234;DHT22;69712;42.142;24.766;2023-05-18T05:50:42;16.60;74.90
80234;DHT22;69712;42.142;24.766;2023-05-18T05:53:08;16.60;73.90
80234;DHT22;69712;42.142;24.766;2023-05-18T05:55:34;16.60;73.40
80234;DHT22;69712;42.142;24.766;2023-05-18T05:58:09;16.60;73.50
80234;DHT22;69712;42.142;24.766;2023-05-18T06:00:35;16.60;73.80
80234;DHT22;69712;42.142;24.766;2023-05-18T06:03:01;16.70;73.50
80234;DHT22;69712;42.142;24.766;2023-05-18T06:05:27;16.60;73.20
80234;DHT22;69712;42.142;24.766;2023-05-18T06:07:53;16.70;73.90
80234;DHT22;69712;42.142;24.766;2023-05-18T06:10:19;16.50;74.10
80234;DHT22;69712;42.142;24.766;2023-05-18T06:12:45;16.60;73.70
80234;DHT22;69712;42.142;24.766;2023-05-18T06:15:11;16.70;73.50
80234;DHT22;69712;42.142;24.766;2023-05-18T06:17:36;16.50;73.70
80234;DHT22;69712;42.142;24.766;2023-05-18T06:20:04;16.50;73.40
80234;DHT22;69712;42.142;24.766;2023-05-18T06:22:31;16.70;72.90
80234;DHT22;69712;42.142;24.766;2023-05-18T06:24:57;16.70;72.50
80234;DHT22;69712;42.142;24.766;2023-05-18T06:27:23;16.40;73.50
80234;DHT22;69712;42.142;24.766;2023-05-18T06:29:49;16.30;74.20
80234;DHT22;69712;42.142;24.766;2023-05-18T06:32:14;16.30;74.80
80234;DHT22;69712;42.142;24.766;2023-05-18T06:34:40;16.20;74.20
80234;DHT22;69712;42.142;24.766;2023-05-18T06:37:06;16.10;75.50
80234;DHT22;69712;42.142;24.766;2023-05-18T06:39:32;16.50;74.50
80234;DHT22;69712;42.142;24.766;2023-05-18T06:41:58;16.00;75.60
80234;DHT22;69712;42.142;24.766;2023-05-18T06:44:24;15.90;76.70
80234;DHT22;69712;42.142;24.766;2023-05-18T06:46:49;16.10;76.30
80234;DHT22;69712;42.142;24.766;2023-05-18T06:49:15;16.20;76.10
80234;DHT22;69712;42.142;24.766;2023-05-18T06:51:41;16.20;76.00
80234;DHT22;69712;42.142;24.766;2023-05-18T06:54:08;16.30;76.00
80234;DHT22;69712;42.142;24.766;2023-05-18T06:56:34;16.50;75.20
80234;DHT22;69712;42.142;24.766;2023-05-18T06:58:59;16.50;74.20
80234;DHT22;69712;42.142;24.766;2023-05-18T07:01:25;16.20;75.70
80234;DHT22;69712;42.142;24.766;2023-05-18T07:03:51;16.00;76.70
80234;DHT22;69712;42.142;24.766;2023-05-18T07:06:16;16.10;76.80
80234;DHT22;69712;42.142;24.766;2023-05-18T07:08:43;16.10;76.60
80234;DHT22;69712;42.142;24.766;2023-05-18T07:11:08;16.00;76.50
80234;DHT22;69712;42.142;24.766;2023-05-18T07:13:34;15.90;77.00
80234;DHT22;69712;42.142;24.766;2023-05-18T07:16:00;15.50;78.10
80234;DHT22;69712;42.142;24.766;2023-05-18T07:18:26;15.40;78.70
80234;DHT22;69712;42.142;24.766;2023-05-18T07:20:53;15.50;78.70
80234;DHT22;69712;42.142;24.766;2023-05-18T07:23:19;15.60;78.40
80234;DHT22;69712;42.142;24.766;2023-05-18T07:25:46;15.80;77.90
80234;DHT22;69712;42.142;24.766;2023-05-18T07:28:13;15.80;77.10
80234;DHT22;69712;42.142;24.766;2023-05-18T07:30:39;15.90;76.70
80234;DHT22;69712;42.142;24.766;2023-05-18T07:33:05;16.00;76.50
80234;DHT22;69712;42.142;24.766;2023-05-18T07:35:31;15.90;77.50
80234;DHT22;69712;42.142;24.766;2023-05-18T07:37:57;16.00;77.60
80234;DHT22;69712;42.142;24.766;2023-05-18T07:40:22;16.20;77.00
80234;DHT22;69712;42.142;24.766;2023-05-18T07:42:48;16.40;76.70
80234;DHT22;69712;42.142;24.766;2023-05-18T07:45:14;16.40;75.60
80234;DHT22;69712;42.142;24.766;2023-05-18T07:47:39;16.30;75.40
80234;DHT22;69712;42.142;24.766;2023-05-18T07:50:06;16.40;74.60
80234;DHT22;69712;42.142;24.766;2023-05-18T07:52:32;16.60;74.20
80234;DHT22;69712;42.142;24.766;2023-05-18T07:54:57;16.40;73.90
80234;DHT22;69712;42.142;24.766;2023-05-18T07:57:24;16.50;74.20
80234;DHT22;69712;42.142;24.766;2023-05-18T07:59:50;16.50;74.10
80234;DHT22;69712;42.142;24.766;2023-05-18T08:02:16;16.70;73.40
80234;DHT22;69712;42.142;24.766;2023-05-18T08:04:47;16.70;73.30
80234;DHT22;69712;42.142;24.766;2023-05-18T08:07:13;16.70;72.20
80234;DHT22;69712;42.142;24.766;2023-05-18T08:09:38;16.40;73.00
80234;DHT22;69712;42.142;24.766;2023-05-18T08:12:05;16.60;73.90
80234;DHT22;69712;42.142;24.766;2023-05-18T08:14:30;16.50;71.70
80234;DHT22;69712;42.142;24.766;2023-05-18T08:16:57;16.30;72.70
80234;DHT22;69712;42.142;24.766;2023-05-18T08:19:22;16.50;74.40
80234;DHT22;69712;42.142;24.766;2023-05-18T08:21:48;16.60;71.70
80234;DHT22;69712;42.142;24.766;2023-05-18T08:24:14;16.90;71.80
80234;DHT22;69712;42.142;24.766;2023-05-18T08:26:40;17.00;69.80
80234;DHT22;69712;42.142;24.766;2023-05-18T08:29:05;17.10;70.00
80234;DHT22;69712;42.142;24.766;2023-05-18T08:31:38;17.00;70.30
80234;DHT22;69712;42.142;24.766;2023-05-18T08:34:04;17.10;69.20
80234;DHT22;69712;42.142;24.766;2023-05-18T08:36:34;17.10;68.80
80234;DHT22;69712;42.142;24.766;2023-05-18T08:39:03;17.00;69.70
80234;DHT22;69712;42.142;24.766;2023-05-18T08:41:32;16.90;67.40
80234;DHT22;69712;42.142;24.766;2023-05-18T08:44:24;16.90;68.60
80234;DHT22;69712;42.142;24.766;2023-05-18T08:46:49;17.00;67.10
80234;DHT22;69712;42.142;24.766;2023-05-18T08:49:20;17.00;67.10
80234;DHT22;69712;42.142;24.766;2023-05-18T08:51:51;17.00;67.10
80234;DHT22;69712;42.142;24.766;2023-05-18T08:54:20;17.20;68.20
80234;DHT22;69712;42.142;24.766;2023-05-18T08:56:47;17.30;65.60
80234;DHT22;69712;42.142;24.766;2023-05-18T08:59:18;17.40;65.50
80234;DHT22;69712;42.142;24.766;2023-05-18T09:01:47;17.70;66.80
80234;DHT22;69712;42.142;24.766;2023-05-18T09:04:13;18.00;65.90
80234;DHT22;69712;42.142;24.766;2023-05-18T09:06:39;18.40;65.40
80234;DHT22;69712;42.142;24.766;2023-05-18T09:09:06;18.10;60.90
80234;DHT22;69712;42.142;24.766;2023-05-18T09:11:33;18.30;61.00
80234;DHT22;69712;42.142;24.766;2023-05-18T09:13:59;18.60;62.60
80234;DHT22;69712;42.142;24.766;2023-05-18T09:16:25;18.60;58.90
80234;DHT22;69712;42.142;24.766;2023-05-18T09:18:52;18.70;60.20
80234;DHT22;69712;42.142;24.766;2023-05-18T09:21:18;18.90;59.70
80234;DHT22;69712;42.142;24.766;2023-05-18T09:23:44;18.80;57.70
80234;DHT22;69712;42.142;24.766;2023-05-18T09:26:10;18.50;58.70
80234;DHT22;69712;42.142;24.766;2023-05-18T09:28:40;18.30;58.50
80234;DHT22;69712;42.142;24.766;2023-05-18T09:31:08;18.50;59.30
80234;DHT22;69712;42.142;24.766;2023-05-18T09:33:36;18.90;57.90
80234;DHT22;69712;42.142;24.766;2023-05-18T09:36:07;19.10;56.20
80234;DHT22;69712;42.142;24.766;2023-05-18T09:38:40;18.80;53.00
80234;DHT22;69712;42.142;24.766;2023-05-18T09:41:10;18.90;56.00
80234;DHT22;69712;42.142;24.766;2023-05-18T09:43:37;18.60;52.70
80234;DHT22;69712;42.142;24.766;2023-05-18T09:46:07;18.50;54.50
80234;DHT22;69712;42.142;24.766;2023-05-18T09:48:40;18.40;56.00
80234;DHT22;69712;42.142;24.766;2023-05-18T09:51:06;18.40;53.60
80234;DHT22;69712;42.142;24.766;2023-05-18T09:53:35;18.70;53.50
80234;DHT22;69712;42.142;24.766;2023-05-18T09:56:05;18.80;52.50
80234;DHT22;69712;42.142;24.766;2023-05-18T09:58:38;19.10;53.30
80234;DHT22;69712;42.142;24.766;2023-05-18T10:01:04;19.50;55.50
80234;DHT22;69712;42.142;24.766;2023-05-18T10:03:35;19.50;51.60
80234;DHT22;69712;42.142;24.766;2023-05-18T10:06:04;19.40;53.20
80234;DHT22;69712;42.142;24.766;2023-05-18T10:08:31;19.40;53.40
80234;DHT22;69712;42.142;24.766;2023-05-18T10:10:57;19.20;52.60
80234;DHT22;69712;42.142;24.766;2023-05-18T10:13:25;18.90;53.10
80234;DHT22;69712;42.142;24.766;2023-05-18T10:15:54;18.70;54.20
80234;DHT22;69712;42.142;24.766;2023-05-18T10:18:22;19.10;54.20
80234;DHT22;69712;42.142;24.766;2023-05-18T10:20:49;19.40;52.10
80234;DHT22;69712;42.142;24.766;2023-05-18T10:23:17;19.60;51.70
80234;DHT22;69712;42.142;24.766;2023-05-18T10:25:45;19.90;52.60
80234;DHT22;69712;42.142;24.766;2023-05-18T10:28:16;20.00;50.60
80234;DHT22;69712;42.142;24.766;2023-05-18T10:30:44;20.20;49.40
80234;DHT22;69712;42.142;24.766;2023-05-18T10:33:10;20.40;49.70
80234;DHT22;69712;42.142;24.766;2023-05-18T10:35:38;20.40;49.00
80234;DHT22;69712;42.142;24.766;2023-05-18T10:38:05;20.50;49.30
80234;DHT22;69712;42.142;24.766;2023-05-18T10:40:32;20.60;48.30
80234;DHT22;69712;42.142;24.766;2023-05-18T10:43:02;20.50;48.00
80234;DHT22;69712;42.142;24.766;2023-05-18T10:45:32;20.60;48.40
80234;DHT22;69712;42.142;24.766;2023-05-18T10:47:59;20.80;48.30
80234;DHT22;69712;42.142;24.766;2023-05-18T10:50:26;20.90;47.90
80234;DHT22;69712;42.142;24.766;2023-05-18T10:52:52;20.50;47.10
80234;DHT22;69712;42.142;24.766;2023-05-18T10:55:19;20.30;48.40
80234;DHT22;69712;42.142;24.766;2023-05-18T10:57:51;20.20;49.30
80234;DHT22;69712;42.142;24.766;2023-05-18T11:00:17;20.10;48.80
80234;DHT22;69712;42.142;24.766;2023-05-18T11:02:44;20.30;49.50
80234;DHT22;69712;42.142;24.766;2023-05-18T11:05:10;20.50;50.30
80234;DHT22;69712;42.142;24.766;2023-05-18T11:07:36;20.60;48.30
80234;DHT22;69712;42.142;24.766;2023-05-18T11:10:07;20.70;48.90
80234;DHT22;69712;42.142;24.766;2023-05-18T11:12:36;20.00;49.40
80234;DHT22;69712;42.142;24.766;2023-05-18T11:15:03;19.90;49.20
80234;DHT22;69712;42.142;24.766;2023-05-18T11:17:30;19.90;48.80
80234;DHT22;69712;42.142;24.766;2023-05-18T11:27:56;20.20;52.10
80234;DHT22;69712;42.142;24.766;2023-05-18T11:33:12;20.30;53.20
80234;DHT22;69712;42.142;24.766;2023-05-18T11:46:31;20.10;53.10
80234;DHT22;69712;42.142;24.766;2023-05-18T11:49:02;20.10;53.00
80234;DHT22;69712;42.142;24.766;2023-05-18T11:51:31;20.20;53.20
80234;DHT22;69712;42.142;24.766;2023-05-18T11:53:58;20.10;51.30
80234;DHT22;69712;42.142;24.766;2023-05-18T11:56:25;20.20;51.00
80234;DHT22;69712;42.142;24.766;2023-05-18T11:59:12;20.20;52.10
80234;DHT22;69712;42.142;24.766;2023-05-18T12:01:40;20.20;52.30
80234;DHT22;69712;42.142;24.766;2023-05-18T12:04:08;20.10;52.70
80234;DHT22;69712;42.142;24.766;2023-05-18T12:06:34;20.10;52.70
80234;DHT22;69712;42.142;24.766;2023-05-18T12:09:02;20.10;52.10
80234;DHT22;69712;42.142;24.766;2023-05-18T12:11:29;20.10;52.60
80234;DHT22;69712;42.142;24.766;2023-05-18T12:13:56;20.00;53.20
80234;DHT22;69712;42.142;24.766;2023-05-18T12:16:22;20.00;54.10
80234;DHT22;69712;42.142;24.766;2023-05-18T12:18:50;19.90;54.60
80234;DHT22;69712;42.142;24.766;2023-05-18T12:21:22;19.60;54.80
80234;DHT22;69712;42.142;24.766;2023-05-18T12:23:58;19.50;55.40
80234;DHT22;69712;42.142;24.766;2023-05-18T12:26:24;19.50;55.60
80234;DHT22;69712;42.142;24.766;2023-05-18T12:28:53;19.60;56.00
80234;DHT22;69712;42.142;24.766;2023-05-18T12:31:20;19.70;55.70
80234;DHT22;69712;42.142;24.766;2023-05-18T12:33:46;19.70;54.60
80234;DHT22;69712;42.142;24.766;2023-05-18T12:36:14;19.70;54.40
80234;DHT22;69712;42.142;24.766;2023-05-18T12:38:40;19.90;54.70
80234;DHT22;69712;42.142;24.766;2023-05-18T12:41:06;19.80;55.80
80234;DHT22;69712;42.142;24.766;2023-05-18T12:43:34;19.70;55.00
80234;DHT22;69712;42.142;24.766;2023-05-18T12:46:03;19.70;55.60
80234;DHT22;69712;42.142;24.766;2023-05-18T12:48:36;19.80;55.90
80234;DHT22;69712;42.142;24.766;2023-05-18T12:51:02;19.80;56.50
80234;DHT22;69712;42.142;24.766;2023-05-18T12:53:41;19.80;57.10
80234;DHT22;69712;42.142;24.766;2023-05-18T12:56:07;19.80;56.60
80234;DHT22;69712;42.142;24.766;2023-05-18T12:58:36;19.90;56.30
80234;DHT22;69712;42.142;24.766;2023-05-18T13:01:09;20.00;56.70
80234;DHT22;69712;42.142;24.766;2023-05-18T13:03:38;20.10;55.90
80234;DHT22;69712;42.142;24.766;2023-05-18T13:06:08;20.00;55.40
80234;DHT22;69712;42.142;24.766;2023-05-18T13:08:35;19.90;55.50
80234;DHT22;69712;42.142;24.766;2023-05-18T13:11:05;19.90;55.40
80234;DHT22;69712;42.142;24.766;2023-05-18T13:13:32;19.80;57.20
80234;DHT22;69712;42.142;24.766;2023-05-18T13:15:57;20.00;57.20
80234;DHT22;69712;42.142;24.766;2023-05-18T13:18:26;20.10;56.80
80234;DHT22;69712;42.142;24.766;2023-05-18T13:20:54;20.20;55.80
80234;DHT22;69712;42.142;24.766;2023-05-18T13:23:25;20.30;55.30
80234;DHT22;69712;42.142;24.766;2023-05-18T13:25:51;20.40;56.30
80234;DHT22;69712;42.142;24.766;2023-05-18T13:28:19;20.50;55.20
80234;DHT22;69712;42.142;24.766;2023-05-18T13:30:46;20.60;54.00
80234;DHT22;69712;42.142;24.766;2023-05-18T13:33:16;20.70;54.80
80234;DHT22;69712;42.142;24.766;2023-05-18T13:35:44;20.60;54.60
80234;DHT22;69712;42.142;24.766;2023-05-18T13:38:13;20.70;55.00
80234;DHT22;69712;42.142;24.766;2023-05-18T13:40:40;20.70;54.20
80234;DHT22;69712;42.142;24.766;2023-05-18T13:43:06;20.50;54.40
80234;DHT22;69712;42.142;24.766;2023-05-18T13:45:34;20.50;55.30
80234;DHT22;69712;42.142;24.766;2023-05-18T13:48:00;20.50;55.70
80234;DHT22;69712;42.142;24.766;2023-05-18T13:50:28;20.70;55.00
80234;DHT22;69712;42.142;24.766;2023-05-18T13:52:53;20.70;54.00
80234;DHT22;69712;42.142;24.766;2023-05-18T13:55:19;20.70;54.10
80234;DHT22;69712;42.142;24.766;2023-05-18T13:57:45;20.70;55.00
80234;DHT22;69712;42.142;24.766;2023-05-18T14:00:11;20.70;55.00
80234;DHT22;69712;42.142;24.766;2023-05-18T14:02:45;20.70;55.60
80234;DHT22;69712;42.142;24.766;2023-05-18T14:05:11;20.60;55.80
80234;DHT22;69712;42.142;24.766;2023-05-18T14:07:38;20.60;55.20
80234;DHT22;69712;42.142;24.766;2023-05-18T14:10:05;20.70;54.80
80234;DHT22;69712;42.142;24.766;2023-05-18T14:12:32;20.80;55.20
80234;DHT22;69712;42.142;24.766;2023-05-18T14:14:58;20.90;53.50
80234;DHT22;69712;42.142;24.766;2023-05-18T14:17:24;20.60;53.60
80234;DHT22;69712;42.142;24.766;2023-05-18T14:19:49;20.70;54.30
80234;DHT22;69712;42.142;24.766;2023-05-18T14:22:15;20.60;55.10
80234;DHT22;69712;42.142;24.766;2023-05-18T14:24:43;20.50;54.90
80234;DHT22;69712;42.142;24.766;2023-05-18T14:27:08;20.60;54.50
80234;DHT22;69712;42.142;24.766;2023-05-18T14:29:34;20.60;54.50
80234;DHT22;69712;42.142;24.766;2023-05-18T14:32:00;20.60;53.90
80234;DHT22;69712;42.142;24.766;2023-05-18T14:34:26;20.50;54.20
80234;DHT22;69712;42.142;24.766;2023-05-18T14:36:52;20.50;53.10
80234;DHT22;69712;42.142;24.766;2023-05-18T14:39:18;20.50;53.10
80234;DHT22;69712;42.142;24.766;2023-05-18T14:41:43;20.50;52.50
80234;DHT22;69712;42.142;24.766;2023-05-18T14:44:09;20.40;52.70
80234;DHT22;69712;42.142;24.766;2023-05-18T14:46:35;20.40;52.60
80234;DHT22;69712;42.142;24.766;2023-05-18T14:49:01;20.30;53.80
80234;DHT22;69712;42.142;24.766;2023-05-18T14:51:27;20.30;54.20
80234;DHT22;69712;42.142;24.766;2023-05-18T14:53:53;20.30;52.90
80234;DHT22;69712;42.142;24.766;2023-05-18T14:56:19;20.30;54.00
80234;DHT22;69712;42.142;24.766;2023-05-18T14:58:45;20.30;55.90
80234;DHT22;69712;42.142;24.766;2023-05-18T15:01:10;20.30;55.10
80234;DHT22;69712;42.142;24.766;2023-05-18T15:03:54;20.40;54.50
80234;DHT22;69712;42.142;24.766;2023-05-18T15:06:20;20.30;54.60
80234;DHT22;69712;42.142;24.766;2023-05-18T15:08:46;20.40;53.30
80234;DHT22;69712;42.142;24.766;2023-05-18T15:11:11;20.00;54.00
80234;DHT22;69712;42.142;24.766;2023-05-18T15:13:37;20.00;54.10
80234;DHT22;69712;42.142;24.766;2023-05-18T15:16:05;20.20;53.60
80234;DHT22;69712;42.142;24.766;2023-05-18T15:18:31;20.20;53.60
80234;DHT22;69712;42.142;24.766;2023-05-18T15:20:56;20.30;53.00
80234;DHT22;69712;42.142;24.766;2023-05-18T15:23:22;20.40;53.50
80234;DHT22;69712;42.142;24.766;2023-05-18T15:25:49;20.40;53.00
80234;DHT22;69712;42.142;24.766;2023-05-18T15:28:16;20.40;55.00
80234;DHT22;69712;42.142;24.766;2023-05-18T15:30:41;20.30;54.50
80234;DHT22;69712;42.142;24.766;2023-05-18T15:33:07;19.20;53.70
80234;DHT22;69712;42.142;24.766;2023-05-18T15:35:33;19.10;55.80
80234;DHT22;69712;42.142;24.766;2023-05-18T15:38:01;19.10;56.80
80234;DHT22;69712;42.142;24.766;2023-05-18T15:40:26;19.30;56.40
80234;DHT22;69712;42.142;24.766;2023-05-18T15:42:52;19.50;56.80
80234;DHT22;69712;42.142;24.766;2023-05-18T15:45:18;19.60;55.80
80234;DHT22;69712;42.142;24.766;2023-05-18T15:47:44;19.70;54.80
80234;DHT22;69712;42.142;24.766;2023-05-18T15:50:10;19.80;54.90